x

Halifax Harbour (44258) Wave Buoy

5:00pm - Mon 29th May 2017 All times are EDT. -4 hours from GMT.

  • Sig Wave height 2.3ft
  • Peak Period 8s
  • Wind
    2mph, 4mph gusts
  • Sea Temp 46°f
  • Air Temp 45°f
  • Sea Pressure 1021.9mb
  • Halifax Harbour
  • Halifax Harbour

More Historic Weather Station data

Upgrade to MSW Pro to gain access to the past 30 days of data for over 8000 Wavebouys and Weather Stations around the globe.

Join Pro

Comparision Forecast

View Surf forecast
   
Mon 05/29 5:00pm 2.5ft 8s 2 4 mph 1021.9mb 46f 45f
4:00pm 2ft 9s 4 4 mph 1021.3mb 46f 45f
3:00pm 2.5ft 8s 4 4 mph 1021.3mb 45f 44f
2:00pm 2ft 9s 4 4 mph 1021.7mb 44f 44f
1:00pm 2.5ft 8s 9 9 mph 1022.1mb 44f 43f
12:00pm 2.5ft 9s 9 9 mph 1022mb 43f 42f
11:00am 2ft 8s 7 9 mph 1021.8mb 43f 42f
10:00am 2.5ft 9s 9 9 mph 1022.2mb 43f 42f
9:00am 2.5ft 9s 4 7 mph 1022.2mb 43f 42f
8:00am 2.5ft 9s 4 4 mph 1022mb 42f 43f
7:00am 2.5ft 8s 2 2 mph 1021.9mb 42f 44f
6:00am 3ft 9s 2 4 mph 1021.4mb 42f 42f
5:00am 3ft 9s 2 4 mph 1020.6mb 42f 42f
4:00am 3ft 9s 7 7 mph 1020.1mb 42f 41f
3:00am 3ft 8s 4 7 mph 1020.6mb 42f 41f
2:00am 3.5ft 9s 2 2 mph 1020.6mb 42f 40f
1:00am 3.5ft 8s 4 7 mph 1020.3mb 42f 41f
12:00am 3.5ft 8s 7 9 mph 1020mb 42f 41f
Sun 05/28 11:00pm 3.5ft 8s 4 7 mph 1019.8mb 42f 42f
10:00pm 3.5ft 9s 4 4 mph 1019.9mb 42f 42f
9:00pm 3.5ft 8s 7 9 mph 1019.2mb 42f 42f
8:00pm 4ft 8s 7 9 mph 1018.7mb 42f 42f
7:00pm 4ft 8s 4 4 mph 1018.9mb 42f 42f
6:00pm 3.5ft 10s 4 4 mph 1018.4mb 42f 42f
5:00pm 4.5ft 9s 7 9 mph 1017.5mb 42f 43f
4:00pm 4ft 8s 11 13 mph 1016.9mb 42f 42f
3:00pm 4.5ft 8s 11 13 mph 1017mb 42f 42f
2:00pm 4.5ft 8s 11 13 mph 1016.4mb 42f 42f
1:00pm 4.5ft 8s 11 13 mph 1016.6mb 42f 42f
12:00pm 4ft 9s 11 16 mph 1016.6mb 41f 41f
11:00am 4ft 8s 16 18 mph 1015.7mb 41f 41f
10:00am 4ft 9s 13 16 mph 1015.5mb 42f 41f
9:00am 4ft 8s 13 18 mph 1015.3mb 42f 41f
8:00am 3.5ft 7s 13 16 mph 1014.8mb 41f 42f
7:00am 3.5ft 8s 11 13 mph 1014.3mb 41f 42f
6:00am 4.5ft 9s 9 11 mph 1014.1mb 41f 42f
5:00am 4.5ft 10s 4 9 mph 1013.4mb 41f 42f
4:00am 5ft 8s 9 11 mph 1013.1mb 41f 42f
3:00am 5ft 10s 13 18 mph 1012.9mb 41f 42f
2:00am 5ft 9s 16 18 mph 1012.8mb 41f 42f
1:00am 6ft 10s 18 20 mph 1012.6mb 41f 42f
12:00am 6.5ft 9s 16 20 mph 1012.8mb 41f 42f
Sat 05/27 11:00pm 6.5ft 9s 18 20 mph 1012.9mb 42f 42f
10:00pm 5.5ft 10s 11 16 mph 1013.1mb 43f 43f
9:00pm 6ft 9s 11 13 mph 1012.8mb 43f 43f
8:00pm 5.5ft 9s 7 9 mph 1012.1mb 42f 43f
7:00pm 5.5ft 8s 11 13 mph 1011.5mb 41f 43f
6:00pm 5.5ft 8s 9 9 mph 1011.1mb 41f 43f
5:00pm 5ft 10s 7 9 mph 1010.1mb 42f 43f
4:00pm 5.5ft 10s 4 7 mph 1009.4mb 42f 44f
3:00pm 7ft 10s 9 11 mph 1008.2mb 42f 45f
2:00pm 6ft 10s 9 11 mph 1007.9mb 42f 46f
1:00pm 6ft 10s 9 11 mph 1008.2mb 42f 46f
12:00pm 7ft 11s 9 11 mph 1007.5mb 42f 45f
11:00am 7ft 10s 13 16 mph 1006.9mb 42f 45f
10:00am 6.5ft 9s 9 13 mph 1006.4mb 42f 44f
9:00am 7ft 10s 13 16 mph 1005.6mb 42f 44f
8:00am 7ft 9s 13 16 mph 1004.7mb 42f 45f
7:00am 7ft 8s 11 13 mph 1003.5mb 42f 43f
6:00am 7.5ft 9s 11 16 mph 1003mb 42f 43f
5:00am 8ft 9s 9 11 mph 1002.2mb 42f 43f
4:00am 8ft 9s 11 13 mph 1001.9mb 42f 43f
3:00am 8ft 9s 11 13 mph 1001.4mb 42f 42f
2:00am 7ft 8s 18 20 mph 1001.1mb 43f 42f
1:00am 8ft 9s 20 25 mph 1000.8mb 43f 42f
12:00am 8ft 9s 25 31 mph 1000mb 43f 42f
Fri 05/26 11:00pm 7.5ft 9s 25 29 mph 1000.1mb 43f 42f
10:00pm 9ft 9s 25 31 mph 1000.4mb 42f 42f
9:00pm 9ft 9s 25 29 mph 1000.6mb 42f 42f
8:00pm 7.5ft 8s 22 27 mph 1000.7mb 42f 42f
7:00pm 8ft 8s 22 27 mph 1000.8mb 43f 42f
6:00pm 7ft 8s 25 29 mph 1000.6mb 43f 43f
5:00pm 8ft 8s 22 27 mph 1000.7mb 43f 43f
4:00pm 8ft 9s 20 27 mph 1001.1mb 43f 43f
3:00pm 8ft 8s 22 27 mph 1001.1mb 43f 43f
2:00pm 8.5ft 7s 20 25 mph 1001.7mb 43f 43f
1:00pm 8.5ft 7s 22 29 mph 1001.9mb 43f 43f
12:00pm 8.5ft 6s 22 29 mph 1003mb 42f 43f
11:00am 8.5ft 6s 27 34 mph 1003.5mb 43f 44f
10:00am 7.5ft 6s 25 34 mph 1004.6mb 43f 44f
9:00am 7ft 6s 27 31 mph 1005.5mb 43f 44f
8:00am 6.5ft 9s 27 31 mph 1007mb 43f 44f
7:00am 6.5ft 9s 27 34 mph 1008.2mb 43f 44f
6:00am 6ft 9s 27 34 mph 1009.4mb 44f 43f
5:00am 6ft 10s 27 34 mph 1009.9mb 44f 43f
4:00am 6ft 10s 22 31 mph 1012.1mb 43f 42f
3:00am 6ft 9s 20 22 mph 1013.6mb 44f 42f
2:00am 5.5ft 9s 25 29 mph 1013.1mb 44f 42f
1:00am 6ft 9s 22 27 mph 1013.8mb 44f 42f
12:00am 5.5ft 9s 22 25 mph 1014.7mb 44f 43f
Thu 05/25 11:00pm 5ft 9s 22 27 mph 1015.1mb 44f 43f